»·PEaware :: HADAI KLAS-KDEN

HADAI :: KLAS-KDEN

FLIGHT INFORMATION

Flight Status: Arrived
Operator: Unknown
More flights by this operator :: More flights under this callsign
Pilot: Tamer M. (30101)
Aircraft: Cessna 525C Citation CJ4
(C25C)
More flights by this aircraft type
Origin: KLAS McCarran Intl
United States
Destination: KDEN Denver Intl
United States
More flights between these airports :: More routes between these airports
Route: GIDGT1 TUKRR BUMMP SSKII2
File this flight plan on PilotEdge
Remarks:
Altitude:
(Current/Filed)
41,000ft
Speed:
(Current/Filed)
450kts
Departed: 15-Mar-21 12:04 PM
Arrived: 15-Mar-21 01:42 PM
Distance/Time
Traveled:
545nm/1:38
Distance/Time
To Go:
Arrived

Flight Plot

Page will automatically refresh every two minutes.

Flight plan parsing failed; only flown route is shown


Map Options




Map Legend


Flown Route
Filed Route
Departure Airport
Arrival Airport
Navaid (VOR, NDB)
Fix

Horizontal Profiles

Position Reports

Time Latitude Longitude Heading Altitude Ground
Speed
15-Mar-21 11:27 36.080611 -115.170630 269 2177ft 0kts
15-Mar-21 11:28 36.080611 -115.170630 269 2177ft 0kts
15-Mar-21 11:29 36.080611 -115.170630 269 2177ft 0kts
15-Mar-21 11:30 36.080611 -115.170630 269 2177ft 0kts
15-Mar-21 11:31 36.080611 -115.170630 269 2177ft 0kts
15-Mar-21 11:32 36.080611 -115.170630 269 2177ft 0kts
15-Mar-21 11:33 36.080611 -115.170630 269 2177ft 0kts
15-Mar-21 11:34 36.080611 -115.170630 269 2177ft 0kts
15-Mar-21 11:35 36.080611 -115.170630 269 2177ft 0kts
15-Mar-21 11:36 36.080611 -115.170630 269 2177ft 0kts
15-Mar-21 11:37 36.080611 -115.170630 269 2177ft 0kts
15-Mar-21 11:38 36.080611 -115.170630 269 2177ft 0kts
15-Mar-21 11:39 36.080611 -115.170630 269 2177ft 0kts
15-Mar-21 11:40 36.080611 -115.170630 269 2177ft 0kts
15-Mar-21 11:41 36.080611 -115.170630 269 2177ft 0kts
15-Mar-21 11:42 36.080611 -115.170630 269 2177ft 0kts
15-Mar-21 11:43 36.080611 -115.170630 269 2177ft 0kts
15-Mar-21 11:44 36.080611 -115.170630 269 2177ft 0kts
15-Mar-21 11:45 36.080611 -115.170630 269 2177ft 0kts
15-Mar-21 11:46 36.080611 -115.170630 269 2177ft 0kts
15-Mar-21 11:47 36.080611 -115.170630 269 2177ft 0kts
15-Mar-21 11:48 36.080611 -115.170630 269 2177ft 0kts
15-Mar-21 11:49 36.080611 -115.170630 269 2177ft 0kts
15-Mar-21 11:50 36.080611 -115.170630 269 2177ft 0kts
15-Mar-21 11:51 36.080917 -115.170229 65 2174ft 9kts
15-Mar-21 11:52 36.083252 -115.167309 23 2165ft 17kts
15-Mar-21 11:53 36.088173 -115.164518 24 2147ft 25kts
15-Mar-21 11:54 36.095266 -115.160454 25 2108ft 34kts
15-Mar-21 11:55 36.099809 -115.157722 66 2091ft 0kts
15-Mar-21 11:56 36.099809 -115.157722 66 2091ft 0kts
15-Mar-21 11:57 36.099830 -115.157636 77 2091ft 4kts
15-Mar-21 11:58 36.094666 -115.159320 205 2111ft 22kts
15-Mar-21 11:59 36.094582 -115.160842 13 2109ft 0kts
15-Mar-21 12:00 36.095926 -115.160069 24 2105ft 20kts
15-Mar-21 12:01 36.099802 -115.157651 72 2091ft 0kts
15-Mar-21 12:02 36.099738 -115.157075 113 2092ft 15kts
15-Mar-21 12:03 36.074415 -115.171433 205 2714ft 177kts
15-Mar-21 12:04 36.025966 -115.209906 249 5638ft 238kts
15-Mar-21 12:05 36.068621 -115.273204 315 9143ft 269kts
15-Mar-21 12:06 36.144426 -115.297520 6 12654ft 305kts
15-Mar-21 12:07 36.189098 -115.212616 77 15823ft 330kts
15-Mar-21 12:08 36.197532 -115.099382 97 18549ft 358kts
15-Mar-21 12:09 36.196415 -114.962370 94 18795ft 413kts
15-Mar-21 12:10 36.196608 -114.828437 95 20819ft 369kts
15-Mar-21 12:11 36.196045 -114.702220 96 23881ft 373kts
15-Mar-21 12:12 36.195871 -114.570366 96 26119ft 392kts
15-Mar-21 12:13 36.195510 -114.432241 97 28106ft 409kts
15-Mar-21 12:14 36.194926 -114.288618 95 29882ft 427kts
15-Mar-21 12:15 36.207439 -114.140167 85 31683ft 436kts
15-Mar-21 12:16 36.224402 -113.992498 84 33510ft 435kts
15-Mar-21 12:17 36.241693 -113.844535 86 35282ft 433kts
15-Mar-21 12:18 36.258675 -113.697480 84 37002ft 428kts
15-Mar-21 12:19 36.275649 -113.551846 85 38432ft 425kts
15-Mar-21 12:20 36.291835 -113.407381 84 39681ft 424kts
15-Mar-21 12:21 36.308458 -113.262584 84 40725ft 424kts
15-Mar-21 12:22 36.349221 -113.122583 64 40970ft 449kts
15-Mar-21 12:23 36.399643 -112.977102 65 40975ft 471kts
15-Mar-21 12:24 36.452680 -112.826612 67 40942ft 477kts
15-Mar-21 12:25 36.505606 -112.673512 66 40930ft 484kts
15-Mar-21 12:26 36.559019 -112.520471 66 40973ft 480kts
15-Mar-21 12:27 36.611200 -112.368215 67 40969ft 476kts
15-Mar-21 12:28 36.663087 -112.217453 66 40959ft 472kts
15-Mar-21 12:29 36.714253 -112.067696 68 40939ft 467kts
15-Mar-21 12:30 36.764591 -111.918807 66 40828ft 468kts
15-Mar-21 12:31 36.815261 -111.769994 67 40909ft 463kts
15-Mar-21 12:32 36.867241 -111.623052 57 40904ft 468kts
15-Mar-21 12:33 36.935812 -111.482690 59 40926ft 479kts
15-Mar-21 12:34 37.004746 -111.337650 58 40927ft 488kts
15-Mar-21 12:35 37.074503 -111.190854 58 40932ft 495kts
15-Mar-21 12:36 37.143546 -111.043249 58 40926ft 480kts
15-Mar-21 12:37 37.209924 -110.901878 57 40953ft 460kts
15-Mar-21 12:38 37.273610 -110.765842 59 40868ft 449kts
15-Mar-21 12:39 37.336642 -110.629380 58 40805ft 454kts
15-Mar-21 12:40 37.400901 -110.491317 58 40806ft 460kts
15-Mar-21 12:41 37.465059 -110.351139 59 40798ft 465kts
15-Mar-21 12:42 37.530344 -110.209450 58 40816ft 469kts
15-Mar-21 12:43 37.595302 -110.066891 60 40816ft 471kts
15-Mar-21 12:44 37.660396 -109.923573 58 41045ft 468kts
15-Mar-21 12:45 37.725302 -109.780825 59 41062ft 471kts
15-Mar-21 12:46 37.789843 -109.636752 59 41041ft 471kts
15-Mar-21 12:47 37.854776 -109.492530 58 41066ft 473kts
15-Mar-21 12:48 37.919514 -109.348022 59 41037ft 472kts
15-Mar-21 12:49 37.983663 -109.202848 59 41049ft 472kts
15-Mar-21 12:50 38.048252 -109.057381 58 41056ft 473kts
15-Mar-21 12:51 38.112432 -108.910788 62 40875ft 479kts
15-Mar-21 12:52 38.171362 -108.758719 61 40846ft 478kts
15-Mar-21 12:53 38.230690 -108.607581 62 40826ft 478kts
15-Mar-21 12:54 38.288979 -108.456910 62 40832ft 471kts
15-Mar-21 12:55 38.346866 -108.308166 64 40802ft 466kts
15-Mar-21 12:56 38.395607 -108.157428 69 40866ft 455kts
15-Mar-21 12:57 38.445440 -108.010792 67 40954ft 446kts
15-Mar-21 12:58 38.502307 -107.871090 64 40830ft 446kts
15-Mar-21 12:59 38.560243 -107.728559 64 39412ft 452kts
15-Mar-21 13:00 38.617746 -107.586938 60 38039ft 444kts
15-Mar-21 13:01 38.673436 -107.447307 61 36652ft 439kts
15-Mar-21 13:02 38.725959 -107.307682 63 35468ft 428kts
15-Mar-21 13:03 38.776477 -107.173197 63 34496ft 412kts
15-Mar-21 13:04 38.825522 -107.042876 62 33484ft 400kts
15-Mar-21 13:05 38.873183 -106.915801 62 32458ft 389kts
15-Mar-21 13:06 38.919203 -106.791515 63 31500ft 382kts
15-Mar-21 13:07 38.964273 -106.669404 62 30497ft 384kts
15-Mar-21 13:08 39.011444 -106.541160 63 29575ft 408kts
15-Mar-21 13:09 39.060916 -106.406550 63 28778ft 421kts
15-Mar-21 13:10 39.111276 -106.268499 63 27952ft 434kts
15-Mar-21 13:11 39.163304 -106.124840 63 27044ft 453kts
15-Mar-21 13:12 39.214757 -105.982323 63 25266ft 426kts
15-Mar-21 13:13 39.263520 -105.846567 62 23259ft 411kts
15-Mar-21 13:14 39.310425 -105.715220 62 21532ft 392kts
15-Mar-21 13:15 39.355082 -105.591346 60 20125ft 367kts
15-Mar-21 13:16 39.395794 -105.479774 61 18616ft 330kts
15-Mar-21 13:17 39.439655 -105.377170 48 17170ft 321kts
15-Mar-21 13:18 39.490650 -105.285483 50 16169ft 307kts
15-Mar-21 13:19 39.540202 -105.194520 50 15192ft 315kts
15-Mar-21 13:20 39.577571 -105.093272 62 14458ft 313kts
15-Mar-21 13:21 39.614342 -104.992542 61 13465ft 307kts
15-Mar-21 13:22 39.650322 -104.894715 61 13024ft 296kts
15-Mar-21 13:23 39.685366 -104.798032 61 13002ft 297kts
15-Mar-21 13:25 39.735566 -104.716328 38 13003ft 291kts
15-Mar-21 13:26 39.791797 -104.640579 51 12999ft 295kts
15-Mar-21 13:27 39.831626 -104.556448 54 12352ft 271kts
15-Mar-21 13:28 39.888689 -104.519794 355 11395ft 230kts
15-Mar-21 13:29 39.950640 -104.521828 356 11728ft 193kts
15-Mar-21 13:30 40.000891 -104.520747 354 11387ft 200kts
15-Mar-21 13:31 40.064830 -104.529496 349 9442ft 255kts
15-Mar-21 13:32 40.131802 -104.551144 317 8248ft 228kts
15-Mar-21 13:33 40.139436 -104.618478 257 8143ft 176kts
15-Mar-21 13:34 40.113686 -104.658431 177 7373ft 169kts
15-Mar-21 13:35 40.072304 -104.662872 180 6811ft 133kts
15-Mar-21 13:36 40.038504 -104.658784 175 7211ft 121kts
15-Mar-21 13:37 40.005328 -104.660432 180 7347ft 118kts
15-Mar-21 13:38 39.969688 -104.660119 181 7678ft 139kts
15-Mar-21 13:39 39.930208 -104.659527 181 6687ft 127kts
15-Mar-21 13:40 39.898175 -104.659913 180 6135ft 122kts
15-Mar-21 13:41 39.863118 -104.660172 175 5430ft 108kts
15-Mar-21 13:42 39.844203 -104.660384 178 5415ft 33kts
15-Mar-21 13:43 39.839728 -104.663887 241 5416ft 9kts
15-Mar-21 13:44 39.839732 -104.665413 282 5413ft 0kts
15-Mar-21 13:45 39.839732 -104.665413 282 5413ft 0kts
15-Mar-21 13:46 39.839732 -104.665413 282 5413ft 0kts

Navigation Log

Ident Type
Flight plan parsing failed, navigation log unavailable